Time;durP1;ratioP1;P1;durP2;ratioP2;P2;SDS_P1;SDS_P2;PMS_P1;PMS_P2;Temp;Humidity;BMP_temperature;BMP_pressure;BME280_temperature;BME280_humidity;BME280_pressure;Samples;Min_cycle;Max_cycle;Signal;HPM_P1;HPM_P2
2022/03/17 00:00:02;;;;;;;22.83;13.82;;;;;;;;;;5072464;28;20052;-71
2022/03/17 00:02:28;;;;;;;24.00;14.10;;;;;;;;;;5082981;28;20036;-71
2022/03/17 00:04:54;;;;;;;24.17;15.65;;;;;;;;;;5092530;28;20048;-71
2022/03/17 00:07:20;;;;;;;23.40;16.27;;;;;;;;;;5067213;28;20036;-72
2022/03/17 00:09:46;;;;;;;26.13;16.65;;;;;;;;;;5082529;28;20048;-71
2022/03/17 00:12:13;;;;;;;24.38;16.20;;;;;;;;;;5080170;28;20121;-71
2022/03/17 00:14:39;;;;;;;26.05;15.90;;;;;;;;;;5073138;28;20135;-71
2022/03/17 00:17:05;;;;;;;25.42;15.50;;;;;;;;;;5073286;28;20080;-71
2022/03/17 00:19:31;;;;;;;29.80;15.10;;;;;;;;;;5064198;28;20099;-71
2022/03/17 00:21:58;;;;;;;24.70;16.42;;;;;;;;;;5060724;28;20044;-71
2022/03/17 00:24:24;;;;;;;18.83;12.82;;;;;;;;;;5074237;28;20044;-71
2022/03/17 00:26:50;;;;;;;24.67;15.93;;;;;;;;;;5083827;28;20536;-71
2022/03/17 00:29:16;;;;;;;22.77;15.27;;;;;;;;;;5085813;28;20048;-71
2022/03/17 00:31:42;;;;;;;24.65;16.20;;;;;;;;;;5073612;28;20044;-72
2022/03/17 00:34:09;;;;;;;25.55;16.58;;;;;;;;;;5070037;28;20047;-71
2022/03/17 00:36:36;;;;;;;24.55;15.82;;;;;;;;;;5067261;28;20058;-71
2022/03/17 00:39:04;;;;;;;25.85;15.98;;;;;;;;;;5096100;28;20078;-71
2022/03/17 00:41:30;;;;;;;28.48;17.20;;;;;;;;;;5075103;28;21930;-71
2022/03/17 00:43:56;;;;;;;26.52;15.88;;;;;;;;;;5058187;28;20079;-71
2022/03/17 00:46:22;;;;;;;24.08;15.43;;;;;;;;;;5052197;28;20484;-71
2022/03/17 00:48:48;;;;;;;24.45;15.30;;;;;;;;;;5093259;28;20050;-71
2022/03/17 00:51:15;;;;;;;25.27;17.05;;;;;;;;;;5076966;28;20040;-71
2022/03/17 00:53:41;;;;;;;23.75;16.25;;;;;;;;;;5074415;28;20099;-71
2022/03/17 00:56:09;;;;;;;25.50;15.98;;;;;;;;;;5055364;28;20040;-72
2022/03/17 00:58:35;;;;;;;27.83;17.85;;;;;;;;;;5057653;28;20143;-72
2022/03/17 01:01:02;;;;;;;24.95;15.55;;;;;;;;;;5057805;28;20488;-71
2022/03/17 01:03:28;;;;;;;25.08;14.48;;;;;;;;;;5058006;28;20048;-72
2022/03/17 01:05:54;;;;;;;24.10;16.08;;;;;;;;;;5073817;28;20051;-71
2022/03/17 01:08:20;;;;;;;25.80;17.38;;;;;;;;;;5077367;28;20076;-71
2022/03/17 01:10:46;;;;;;;26.83;17.02;;;;;;;;;;5077134;28;20089;-73
2022/03/17 01:13:12;;;;;;;27.85;19.35;;;;;;;;;;5074636;28;20058;-72
2022/03/17 01:15:38;;;;;;;25.70;16.08;;;;;;;;;;5059402;28;20131;-72
2022/03/17 01:18:05;;;;;;;28.23;17.50;;;;;;;;;;5090926;28;20080;-72
2022/03/17 01:20:31;;;;;;;26.48;17.52;;;;;;;;;;5076587;28;20055;-72
2022/03/17 01:22:57;;;;;;;29.08;17.05;;;;;;;;;;5079434;22;20052;-71
2022/03/17 01:25:23;;;;;;;25.65;16.98;;;;;;;;;;5053330;28;20053;-72
2022/03/17 01:27:49;;;;;;;28.70;17.35;;;;;;;;;;5036969;28;20053;-72
2022/03/17 01:30:17;;;;;;;28.70;17.88;;;;;;;;;;5055078;28;20055;-72
2022/03/17 01:32:43;;;;;;;26.42;16.08;;;;;;;;;;5036960;28;20049;-71
2022/03/17 01:35:09;;;;;;;26.92;18.67;;;;;;;;;;5051677;28;20871;-71
2022/03/17 01:37:36;;;;;;;30.73;19.20;;;;;;;;;;5053535;28;20040;-71
2022/03/17 01:40:02;;;;;;;23.58;16.17;;;;;;;;;;5052979;28;20049;-70
2022/03/17 01:42:28;;;;;;;30.63;20.20;;;;;;;;;;5054909;28;20045;-70
2022/03/17 01:44:55;;;;;;;30.17;19.55;;;;;;;;;;5053106;28;20041;-70
2022/03/17 01:47:27;;;;;;;27.38;17.50;;;;;;;;;;5053377;28;20053;-71
2022/03/17 01:49:54;;;;;;;32.28;21.63;;;;;;;;;;5054013;28;20072;-70
2022/03/17 01:52:20;;;;;;;34.92;20.73;;;;;;;;;;5036705;28;20049;-70
2022/03/17 01:54:47;;;;;;;32.15;20.40;;;;;;;;;;5052604;28;20041;-71
2022/03/17 01:57:13;;;;;;;33.22;21.13;;;;;;;;;;5053421;28;20052;-71
2022/03/17 01:59:40;;;;;;;32.22;20.90;;;;;;;;;;5053805;28;20048;-71
2022/03/17 02:02:07;;;;;;;31.33;20.40;;;;;;;;;;5054011;28;20712;-71
2022/03/17 02:04:35;;;;;;;30.27;19.80;;;;;;;;;;5053630;28;20047;-71
2022/03/17 02:07:02;;;;;;;31.58;20.98;;;;;;;;;;5035967;28;20052;-71
2022/03/17 02:09:28;;;;;;;32.20;21.38;;;;;;;;;;5053938;28;20048;-71
2022/03/17 02:14:49;;;;;;;31.25;19.92;;;;;;;;;;5053451;28;20041;-71
2022/03/17 02:17:16;;;;;;;32.58;19.73;;;;;;;;;;5047159;28;20112;-71
2022/03/17 02:19:42;;;;;;;32.35;22.17;;;;;;;;;;5053982;28;20072;-72
2022/03/17 02:22:10;;;;;;;35.28;22.23;;;;;;;;;;5053899;28;20382;-71
2022/03/17 02:27:21;;;;;;;33.22;18.67;;;;;;;;;;5052501;28;20060;-71
2022/03/17 02:29:47;;;;;;;34.30;20.70;;;;;;;;;;5053550;28;20060;-71
2022/03/17 02:32:14;;;;;;;35.03;22.15;;;;;;;;;;5053951;28;20037;-71
2022/03/17 02:34:41;;;;;;;33.13;21.33;;;;;;;;;;5035540;28;20048;-72
2022/03/17 02:37:07;;;;;;;34.00;23.08;;;;;;;;;;5053133;28;20049;-72
2022/03/17 02:39:34;;;;;;;34.15;23.13;;;;;;;;;;5052072;28;20492;-71
2022/03/17 02:42:00;;;;;;;37.13;22.98;;;;;;;;;;5053671;28;20053;-71
2022/03/17 02:44:26;;;;;;;33.70;18.45;;;;;;;;;;5051885;28;20048;-71
2022/03/17 02:46:52;;;;;;;31.80;18.02;;;;;;;;;;5051907;28;20110;-71
2022/03/17 02:49:18;;;;;;;36.00;23.67;;;;;;;;;;5035765;28;20048;-72
2022/03/17 02:51:46;;;;;;;33.50;21.23;;;;;;;;;;5053540;28;20152;-71
2022/03/17 02:54:12;;;;;;;36.45;23.98;;;;;;;;;;5053016;28;20045;-71
2022/03/17 02:56:38;;;;;;;31.88;19.02;;;;;;;;;;5052472;28;20110;-72
2022/03/17 02:59:04;;;;;;;36.30;22.80;;;;;;;;;;5053206;28;20719;-71
2022/03/17 03:01:30;;;;;;;37.78;22.15;;;;;;;;;;5053469;28;20132;-71
2022/03/17 03:03:56;;;;;;;38.42;23.50;;;;;;;;;;5039850;28;20489;-72
2022/03/17 03:06:22;;;;;;;42.05;24.30;;;;;;;;;;5052801;28;20128;-71
2022/03/17 03:08:48;;;;;;;36.80;25.25;;;;;;;;;;5035234;28;20132;-71
2022/03/17 03:11:14;;;;;;;36.22;23.45;;;;;;;;;;5052442;28;20096;-72
2022/03/17 03:13:40;;;;;;;37.90;24.30;;;;;;;;;;5052739;28;20151;-71
2022/03/17 03:16:06;;;;;;;38.45;26.23;;;;;;;;;;5051346;28;20068;-71
2022/03/17 03:18:32;;;;;;;39.90;25.90;;;;;;;;;;5050939;28;20044;-70
2022/03/17 03:20:58;;;;;;;43.95;26.48;;;;;;;;;;5051589;28;20120;-70
2022/03/17 03:23:24;;;;;;;42.65;27.75;;;;;;;;;;5059330;28;20072;-71
2022/03/17 03:25:50;;;;;;;43.83;26.58;;;;;;;;;;5072242;28;20150;-70
2022/03/17 03:28:16;;;;;;;47.08;28.98;;;;;;;;;;5038055;28;20503;-69
2022/03/17 03:30:42;;;;;;;47.65;29.85;;;;;;;;;;5073169;28;20048;-69
2022/03/17 03:33:08;;;;;;;48.08;29.20;;;;;;;;;;5054092;28;20044;-69
2022/03/17 03:38:20;;;;;;;54.13;31.25;;;;;;;;;;5072309;28;20083;-69
2022/03/17 03:40:47;;;;;;;51.22;29.45;;;;;;;;;;5072470;28;20060;-69
2022/03/17 03:43:13;;;;;;;50.38;29.90;;;;;;;;;;5054304;28;20382;-69
2022/03/17 03:45:39;;;;;;;48.10;28.42;;;;;;;;;;5072251;28;20055;-69
2022/03/17 03:48:05;;;;;;;54.58;30.75;;;;;;;;;;5071519;28;20033;-69
2022/03/17 03:50:31;;;;;;;50.58;30.88;;;;;;;;;;5072304;28;20076;-69
2022/03/17 03:52:58;;;;;;;50.80;27.95;;;;;;;;;;5054351;28;20047;-69
2022/03/17 03:55:24;;;;;;;47.85;28.65;;;;;;;;;;5071886;28;20048;-70
2022/03/17 03:57:51;;;;;;;61.63;33.15;;;;;;;;;;5037840;28;20052;-70
2022/03/17 04:02:43;;;;;;;62.13;31.35;;;;;;;;;;5054258;28;20394;-70
2022/03/17 04:05:10;;;;;;;63.35;33.95;;;;;;;;;;5037432;28;20048;-70
2022/03/17 04:07:37;;;;;;;57.58;32.10;;;;;;;;;;5038571;28;20044;-70
2022/03/17 04:10:05;;;;;;;59.70;32.13;;;;;;;;;;5058970;28;20404;-70
2022/03/17 04:12:31;;;;;;;56.60;30.58;;;;;;;;;;5058457;28;20079;-70
2022/03/17 04:14:57;;;;;;;66.03;32.75;;;;;;;;;;5057999;28;20051;-70
2022/03/17 04:17:24;;;;;;;68.25;37.53;;;;;;;;;;5041260;28;20048;-71
2022/03/17 04:19:50;;;;;;;42.95;25.23;;;;;;;;;;5075736;28;20047;-71
2022/03/17 04:22:16;;;;;;;33.58;17.02;;;;;;;;;;5076213;28;20044;-69
2022/03/17 04:24:42;;;;;;;16.13;9.48;;;;;;;;;;5075185;28;20060;-71
2022/03/17 04:27:08;;;;;;;12.52;7.75;;;;;;;;;;5075310;28;20045;-70
2022/03/17 04:29:34;;;;;;;12.93;7.30;;;;;;;;;;5058176;28;20048;-70
2022/03/17 04:32:00;;;;;;;12.93;7.45;;;;;;;;;;5075864;28;20500;-69
2022/03/17 04:34:26;;;;;;;14.95;9.18;;;;;;;;;;5040923;28;20048;-71
2022/03/17 04:36:52;;;;;;;15.00;7.47;;;;;;;;;;5058198;28;20041;-69
2022/03/17 04:39:18;;;;;;;17.27;8.98;;;;;;;;;;5075312;28;20048;-68
2022/03/17 04:41:44;;;;;;;9.82;6.53;;;;;;;;;;5076153;28;20046;-70
2022/03/17 04:44:12;;;;;;;17.83;8.18;;;;;;;;;;5075726;28;20048;-70
2022/03/17 04:46:40;;;;;;;11.27;5.68;;;;;;;;;;5040487;28;20048;-69
2022/03/17 04:49:07;;;;;;;11.10;7.35;;;;;;;;;;5058107;28;20110;-69
2022/03/17 04:51:33;;;;;;;14.57;6.60;;;;;;;;;;5057899;28;20435;-70
2022/03/17 04:54:00;;;;;;;11.73;7.32;;;;;;;;;;5057438;28;20051;-70
2022/03/17 04:56:26;;;;;;;9.35;6.15;;;;;;;;;;5057477;28;20105;-70
2022/03/17 04:58:52;;;;;;;14.60;7.28;;;;;;;;;;5057839;28;20056;-71
2022/03/17 05:01:19;;;;;;;14.68;8.65;;;;;;;;;;5074829;28;20127;-71
2022/03/17 05:03:45;;;;;;;16.45;9.27;;;;;;;;;;5057505;28;20040;-70
2022/03/17 05:06:14;;;;;;;15.60;7.28;;;;;;;;;;5074538;28;20128;-69
2022/03/17 05:08:40;;;;;;;19.90;10.68;;;;;;;;;;5057366;28;20048;-72
2022/03/17 05:11:10;;;;;;;18.42;8.55;;;;;;;;;;5057530;28;20045;-72
2022/03/17 05:13:37;;;;;;;19.20;10.20;;;;;;;;;;5057232;28;20463;-72
2022/03/17 05:16:07;;;;;;;19.08;8.95;;;;;;;;;;5074723;28;20048;-72
2022/03/17 05:18:34;;;;;;;15.77;7.93;;;;;;;;;;5056889;28;20553;-72
2022/03/17 05:21:00;;;;;;;16.88;7.88;;;;;;;;;;5074744;28;20373;-72
2022/03/17 05:23:26;;;;;;;23.48;8.30;;;;;;;;;;5056770;28;20049;-73
2022/03/17 05:25:52;;;;;;;15.82;6.20;;;;;;;;;;5055318;28;20045;-73
2022/03/17 05:28:19;;;;;;;18.95;8.63;;;;;;;;;;5074020;28;20098;-73
2022/03/17 05:30:46;;;;;;;18.27;7.72;;;;;;;;;;5055778;28;20056;-73
2022/03/17 05:33:12;;;;;;;21.15;7.80;;;;;;;;;;5073591;28;20036;-72
2022/03/17 05:35:39;;;;;;;17.83;7.65;;;;;;;;;;5073532;28;20055;-73
2022/03/17 05:38:05;;;;;;;17.98;6.88;;;;;;;;;;5056236;28;20048;-72
2022/03/17 05:40:32;;;;;;;17.40;7.32;;;;;;;;;;5073042;28;20072;-72
2022/03/17 05:43:00;;;;;;;24.33;6.95;;;;;;;;;;5073575;28;20040;-74
2022/03/17 05:45:27;;;;;;;21.92;7.80;;;;;;;;;;5037937;28;20045;-75
2022/03/17 05:47:54;;;;;;;19.42;5.80;;;;;;;;;;5055595;28;20500;-75
2022/03/17 05:50:21;;;;;;;12.52;4.85;;;;;;;;;;5055280;28;20055;-75
2022/03/17 05:52:48;;;;;;;22.20;7.05;;;;;;;;;;5055187;28;20110;-74
2022/03/17 05:55:15;;;;;;;17.45;5.32;;;;;;;;;;5072749;28;20496;-73
2022/03/17 05:57:41;;;;;;;15.43;4.93;;;;;;;;;;5038909;28;20052;-73
2022/03/17 06:00:09;;;;;;;16.13;5.65;;;;;;;;;;5039219;28;20131;-76
2022/03/17 06:02:35;;;;;;;8.88;3.47;;;;;;;;;;5054675;28;20048;-75
2022/03/17 06:05:02;;;;;;;14.50;5.13;;;;;;;;;;5072431;28;20063;-74
2022/03/17 06:07:38;;;;;;;14.98;3.58;;;;;;;;;;5054970;28;20048;-75
2022/03/17 06:10:05;;;;;;;14.23;4.10;;;;;;;;;;5073360;28;20044;-75
2022/03/17 06:12:31;;;;;;;14.15;2.95;;;;;;;;;;5071699;28;20869;-75
2022/03/17 06:14:57;;;;;;;15.10;3.13;;;;;;;;;;5070697;28;20048;-74
2022/03/17 06:17:24;;;;;;;20.30;3.17;;;;;;;;;;5038824;28;20041;-75
2022/03/17 06:19:50;;;;;;;18.38;2.75;;;;;;;;;;5055425;28;20510;-70
2022/03/17 06:22:16;;;;;;;16.95;2.90;;;;;;;;;;5055139;28;20090;-69
2022/03/17 06:24:42;;;;;;;15.97;2.23;;;;;;;;;;5014564;28;1066872;-69
2022/03/17 06:27:08;;;;;;;17.23;2.72;;;;;;;;;;5054005;28;20052;-75
2022/03/17 06:29:34;;;;;;;8.60;2.88;;;;;;;;;;5053385;28;20044;-75
2022/03/17 06:32:00;;;;;;;17.30;2.95;;;;;;;;;;5052057;28;20492;-73
2022/03/17 06:34:26;;;;;;;17.30;4.60;;;;;;;;;;5051708;28;20067;-75
2022/03/17 06:36:52;;;;;;;14.40;2.28;;;;;;;;;;5052723;28;20041;-75
2022/03/17 06:39:18;;;;;;;11.38;2.47;;;;;;;;;;5052628;28;20061;-73
2022/03/17 06:41:44;;;;;;;14.73;2.83;;;;;;;;;;5034003;28;20485;-75
2022/03/17 06:44:10;;;;;;;19.83;3.92;;;;;;;;;;5049272;28;20048;-73
2022/03/17 06:46:36;;;;;;;13.90;2.10;;;;;;;;;;5048833;28;20048;-74
2022/03/17 06:49:02;;;;;;;19.90;2.28;;;;;;;;;;5050476;28;20047;-76
2022/03/17 06:51:28;;;;;;;17.00;2.45;;;;;;;;;;5048649;28;20495;-74
2022/03/17 06:53:54;;;;;;;22.13;2.33;;;;;;;;;;5049465;28;20033;-71
2022/03/17 06:56:20;;;;;;;9.80;1.77;;;;;;;;;;5045324;28;20136;-73
2022/03/17 06:58:46;;;;;;;11.68;2.05;;;;;;;;;;5046620;28;20048;-76
2022/03/17 07:01:12;;;;;;;13.55;2.65;;;;;;;;;;5047946;28;20048;-76
2022/03/17 07:03:38;;;;;;;9.45;2.53;;;;;;;;;;5048686;28;20059;-76
2022/03/17 07:06:04;;;;;;;15.75;2.90;;;;;;;;;;5046159;28;20134;-74
2022/03/17 07:08:30;;;;;;;17.48;2.72;;;;;;;;;;5014380;28;20045;-69
2022/03/17 07:10:57;;;;;;;18.13;2.40;;;;;;;;;;5044565;28;20037;-77
2022/03/17 07:13:23;;;;;;;11.68;1.80;;;;;;;;;;5048550;28;20048;-76
2022/03/17 07:15:49;;;;;;;13.13;2.00;;;;;;;;;;5044459;28;20052;-74
2022/03/17 07:18:15;;;;;;;8.55;1.30;;;;;;;;;;5045483;28;20458;-77
2022/03/17 07:20:42;;;;;;;11.73;1.40;;;;;;;;;;5034429;28;20041;-75
2022/03/17 07:23:08;;;;;;;12.40;1.80;;;;;;;;;;5051150;28;20057;-76
2022/03/17 07:25:34;;;;;;;6.82;2.15;;;;;;;;;;5044001;28;20067;-75
2022/03/17 07:28:00;;;;;;;15.00;1.50;;;;;;;;;;5044624;28;20553;-74
2022/03/17 07:30:26;;;;;;;14.80;2.58;;;;;;;;;;5072404;28;20058;-75
2022/03/17 07:32:55;;;;;;;10.85;2.15;;;;;;;;;;5037830;28;20394;-75
2022/03/17 07:35:22;;;;;;;10.45;1.45;;;;;;;;;;5052449;28;20046;-75
2022/03/17 07:37:49;;;;;;;11.80;2.10;;;;;;;;;;5051697;28;20047;-76
2022/03/17 07:40:16;;;;;;;18.10;2.20;;;;;;;;;;5052365;28;20045;-74
2022/03/17 07:42:42;;;;;;;13.30;2.20;;;;;;;;;;5053045;28;20056;-74
2022/03/17 07:45:08;;;;;;;12.70;2.47;;;;;;;;;;5063120;28;20087;-75
2022/03/17 07:47:34;;;;;;;15.32;2.00;;;;;;;;;;5070095;28;20067;-76
2022/03/17 07:50:04;;;;;;;19.20;2.22;;;;;;;;;;5069581;28;20037;-75
2022/03/17 07:52:30;;;;;;;17.20;2.20;;;;;;;;;;5052267;28;20055;-76
2022/03/17 07:54:56;;;;;;;11.40;2.08;;;;;;;;;;5051581;28;20052;-74
2022/03/17 07:57:22;;;;;;;9.32;2.90;;;;;;;;;;5054389;28;20141;-75
2022/03/17 07:59:48;;;;;;;9.82;2.03;;;;;;;;;;5054823;28;20041;-75
2022/03/17 08:02:16;;;;;;;13.18;1.75;;;;;;;;;;5049452;28;20052;-76
2022/03/17 08:04:47;;;;;;;11.65;1.35;;;;;;;;;;5052219;28;20127;-73
2022/03/17 08:07:14;;;;;;;18.35;2.40;;;;;;;;;;5019792;28;20088;-74
2022/03/17 08:09:40;;;;;;;14.25;2.15;;;;;;;;;;5054589;28;20087;-74
2022/03/17 08:12:06;;;;;;;14.57;2.50;;;;;;;;;;5071396;28;20045;-74
2022/03/17 08:14:32;;;;;;;10.43;2.53;;;;;;;;;;5052947;28;20052;-72
2022/03/17 08:16:58;;;;;;;13.85;2.53;;;;;;;;;;5060845;28;20041;-73
2022/03/17 08:19:24;;;;;;;16.27;2.00;;;;;;;;;;5053854;28;20094;-73
2022/03/17 08:21:53;;;;;;;22.27;2.67;;;;;;;;;;5053381;28;20041;-74
2022/03/17 08:24:19;;;;;;;12.90;2.28;;;;;;;;;;5052199;28;20118;-74
2022/03/17 08:26:45;;;;;;;13.55;2.13;;;;;;;;;;5053892;28;20412;-73
2022/03/17 08:29:11;;;;;;;16.25;2.70;;;;;;;;;;5051669;28;20033;-74
2022/03/17 08:31:37;;;;;;;12.95;1.70;;;;;;;;;;5071421;28;20090;-73
2022/03/17 08:34:03;;;;;;;8.30;1.70;;;;;;;;;;5071532;28;20106;-73
2022/03/17 08:36:29;;;;;;;16.05;1.58;;;;;;;;;;5037668;28;20135;-73
2022/03/17 08:38:55;;;;;;;13.52;2.40;;;;;;;;;;5071092;28;20052;-73
2022/03/17 08:41:21;;;;;;;9.23;2.00;;;;;;;;;;5052004;28;20045;-72
2022/03/17 08:43:48;;;;;;;13.27;2.30;;;;;;;;;;5052556;28;20067;-74
2022/03/17 08:51:44;;;;;;;9.95;2.42;;;;;;;;;;5052790;28;20492;-74
2022/03/17 08:54:11;;;;;;;8.93;1.80;;;;;;;;;;5072503;28;20045;-73
2022/03/17 08:56:37;;;;;;;13.85;2.08;;;;;;;;;;5068886;28;20052;-74
2022/03/17 08:59:04;;;;;;;12.73;1.63;;;;;;;;;;5038825;28;20048;-75
2022/03/17 09:01:30;;;;;;;13.50;1.63;;;;;;;;;;5056664;28;20048;-73
2022/03/17 09:03:56;;;;;;;17.40;2.28;;;;;;;;;;5075230;28;20055;-74
2022/03/17 09:06:22;;;;;;;5.97;1.23;;;;;;;;;;5040388;28;20045;-74
2022/03/17 09:08:49;;;;;;;16.23;1.95;;;;;;;;;;5040330;28;20056;-74
2022/03/17 09:11:15;;;;;;;10.73;1.38;;;;;;;;;;5056894;28;20048;-75
2022/03/17 09:13:41;;;;;;;16.02;1.70;;;;;;;;;;5075178;28;20044;-74
2022/03/17 09:16:07;;;;;;;14.88;1.85;;;;;;;;;;5057254;28;20040;-74
2022/03/17 09:18:34;;;;;;;7.38;1.77;;;;;;;;;;5040630;28;20056;-74
2022/03/17 09:21:00;;;;;;;15.98;2.17;;;;;;;;;;5040362;28;20052;-75
2022/03/17 09:23:29;;;;;;;7.90;1.60;;;;;;;;;;5040314;28;20068;-75
2022/03/17 09:25:55;;;;;;;8.77;1.45;;;;;;;;;;5055674;28;20114;-75
2022/03/17 09:28:22;;;;;;;8.73;1.27;;;;;;;;;;5072401;28;20416;-76
2022/03/17 09:30:50;;;;;;;4.60;0.93;;;;;;;;;;5056956;28;20055;-76
2022/03/17 09:33:16;;;;;;;6.05;1.63;;;;;;;;;;5057259;28;20083;-76
2022/03/17 09:35:42;;;;;;;11.48;1.83;;;;;;;;;;5040559;28;20088;-75
2022/03/17 09:38:08;;;;;;;12.27;1.48;;;;;;;;;;5057273;28;20051;-75
2022/03/17 09:40:38;;;;;;;11.40;2.05;;;;;;;;;;5074447;28;20046;-76
2022/03/17 09:43:39;;;;;;;10.77;1.13;;;;;;;;;;5055317;28;20086;-75
2022/03/17 09:45:58;;;;;;;4.10;0.82;;;;;;;;;;5069892;28;20380;-74
2022/03/17 09:48:25;;;;;;;6.38;1.30;;;;;;;;;;5056476;28;20045;-75
2022/03/17 09:50:56;;;;;;;11.38;2.00;;;;;;;;;;5039594;28;20131;-75
2022/03/17 09:53:23;;;;;;;;;;;10.10;99.90;;;;;;5056611;28;20443;-74
2022/03/17 09:55:50;;;;;;;8.18;1.45;;;;;;;;;;5052979;28;19927;-75
2022/03/17 09:58:16;;;;;;;6.13;1.17;;;;;;;;;;5049794;28;20484;-75
2022/03/17 10:00:49;;;;;;;12.23;1.52;;;;;;;;;;5071070;28;20048;-76
2022/03/17 10:03:18;;;;;;;11.98;1.40;;;;;;;;;;5039745;28;20443;-75
2022/03/17 10:05:46;;;;;;;19.73;2.10;;;;;;;;;;5038081;28;20082;-76
2022/03/17 10:08:12;;;;;;;10.82;2.45;;;;;;;;;;5055123;28;20105;-76
2022/03/17 10:10:39;;;;;;;16.65;1.45;;;;;;;;;;5039556;28;20086;-76
2022/03/17 10:13:06;;;;;;;11.77;2.63;;;;;;;;;;5054485;28;20504;-76
2022/03/17 10:15:33;;;;;;;8.48;1.40;;;;;;;;;;5055036;28;20385;-75
2022/03/17 10:18:00;;;;;;;9.70;1.83;;;;;;;;;;5056033;28;20211;-74
2022/03/17 10:20:27;;;;;;;12.25;2.22;;;;;;;;;;5038116;28;20055;-76
2022/03/17 10:22:54;;;;;;;10.20;1.85;;;;;;;;;;5054605;28;20127;-74
2022/03/17 10:25:22;;;;;;;11.77;1.33;;;;;;;;;;5039218;28;20496;-74
2022/03/17 10:27:54;;;;;;;8.75;1.80;;;;;;;;;;5039758;28;20045;-75
2022/03/17 10:30:32;;;;;;;10.68;1.77;;;;;;;;;;5055264;28;20056;-74
2022/03/17 10:33:00;;;;;;;6.72;1.35;;;;;;;;;;5054345;28;20040;-75
2022/03/17 10:35:34;;;;;;;8.98;1.70;;;;;;;;;;5055219;28;20080;-73
2022/03/17 10:38:09;;;;;;;9.68;1.40;;;;;;;;;;5054789;28;20120;-74
2022/03/17 10:40:37;;;;;;;8.50;1.98;;;;;;;;;;5064972;28;20044;-74
2022/03/17 10:43:22;;;;;;;10.27;1.63;;;;;;;;;;5042967;28;20075;-75
2022/03/17 10:45:48;;;;;;;9.35;1.58;;;;;;;;;;5072165;28;20041;-75
2022/03/17 10:48:14;;;;;;;8.25;2.50;;;;;;;;;;5054082;28;20396;-74
2022/03/17 10:50:42;;;;;;;12.00;1.52;;;;;;;;;;5073452;28;20131;-75
2022/03/17 10:53:11;;;;;;;7.65;1.70;;;;;;;;;;5054654;28;20067;-75
2022/03/17 10:55:39;;;;;;;10.43;1.90;;;;;;;;;;5038849;28;20094;-75
2022/03/17 10:58:14;;;;;;;16.70;3.78;;;;;;;;;;5041398;28;20542;-75
2022/03/17 11:00:50;;;;;;;15.18;2.67;;;;;;;;;;5079694;28;20397;-75
2022/03/17 11:03:16;;;;;;;14.48;2.17;;;;;;;;;;5022262;28;20040;-76
2022/03/17 11:05:42;;;;;;;11.68;1.73;;;;;;;;;;5055005;28;20060;-74
2022/03/17 11:08:09;;;;;;;9.32;2.05;;;;;;;;;;5054698;28;20058;-75
2022/03/17 11:10:35;;;;;;;7.82;1.95;;;;;;;;;;5071081;28;20047;-75
2022/03/17 11:13:08;;;;;;;12.02;1.50;;;;;;;;;;5054086;28;20114;-74
2022/03/17 11:15:36;;;;;;;11.93;2.10;;;;;;;;;;5055173;28;20106;-74
2022/03/17 11:18:04;;;;;;;13.25;2.05;;;;;;;;;;5054432;28;20128;-72
2022/03/17 11:20:31;;;;;;;7.90;1.52;;;;;;;;;;5072092;28;20040;-75
2022/03/17 11:23:15;;;;;;;14.52;3.08;;;;;;;;;;5054746;28;20075;-74
2022/03/17 11:25:45;;;;;;;10.38;2.55;;;;;;;;;;5054787;28;20055;-74
2022/03/17 11:28:11;;;;;;;10.55;1.50;;;;;;;;;;5038150;28;20048;-75
2022/03/17 11:30:40;;;;;;;13.88;1.75;;;;;;;;;;5037334;28;20066;-75
2022/03/17 11:33:20;;;;;;;7.72;1.38;;;;;;;;;;5054479;28;20056;-75
2022/03/17 11:35:52;;;;;;;8.20;1.83;;;;;;;;;;5072304;28;20048;-74
2022/03/17 11:38:19;;;;;;;7.93;2.00;;;;;;;;;;5054244;28;20071;-73
2022/03/17 11:41:14;;;;;;;9.75;1.80;;;11.20;99.90;;;;;;5054731;28;20044;-75
2022/03/17 11:43:40;;;;;;;11.55;2.03;;;;;;;;;;5053537;28;20051;-75
2022/03/17 11:46:16;;;;;;;10.38;2.50;;;;;;;;;;5053990;28;20032;-75
2022/03/17 11:48:43;;;;;;;23.52;2.63;;;;;;;;;;5053602;28;20542;-75
2022/03/17 11:51:10;;;;;;;11.05;2.03;;;;;;;;;;5072552;28;20408;-74
2022/03/17 11:53:44;;;;;;;7.85;2.30;;;;;;;;;;5070974;28;20076;-72
2022/03/17 11:56:12;;;;;;;16.33;2.20;;;;;;;;;;5067829;28;20071;-75
2022/03/17 11:58:42;;;;;;;12.05;2.58;;;;;;;;;;5051272;28;20056;-73
2022/03/17 12:01:46;;;;;;;11.23;2.13;;;11.60;99.90;;;;;;5054314;28;20036;-75
2022/03/17 12:04:30;;;;;;;10.20;2.05;;;;;;;;;;5045449;28;20044;-73
2022/03/17 12:07:18;;;;;;;15.60;2.03;;;;;;;;;;5049902;28;20048;-72
2022/03/17 12:09:44;;;;;;;12.60;2.05;;;;;;;;;;5054891;28;20131;-75
2022/03/17 12:12:19;;;;;;;17.77;4.28;;;;;;;;;;5071178;28;20044;-74
2022/03/17 12:14:50;;;;;;;13.40;2.03;;;;;;;;;;5035858;28;20060;-73
2022/03/17 12:17:17;;;;;;;6.55;1.52;;;;;;;;;;5037453;28;20098;-72
2022/03/17 12:19:51;;;;;;;15.18;2.30;;;;;;;;;;5070637;28;20418;-74
2022/03/17 12:22:17;;;;;;;12.55;1.98;;;;;;;;;;5070766;28;20072;-75
2022/03/17 12:24:46;;;;;;;9.73;1.25;;;;;;;;;;5070865;28;20048;-74
2022/03/17 12:27:17;;;;;;;12.00;1.90;;;;;;;;;;5037519;28;20503;-74
2022/03/17 12:29:44;;;;;;;10.88;1.88;;;;;;;;;;5074753;28;20041;-74
2022/03/17 12:32:12;;;;;;;8.55;2.15;;;;;;;;;;5056218;28;20040;-73
2022/03/17 12:34:39;;;;;;;12.82;1.70;;;;;;;;;;5040407;28;20084;-74
2022/03/17 12:37:06;;;;;;;14.25;1.55;;;;;;;;;;5041182;28;20055;-73
2022/03/17 12:39:33;;;;;;;13.73;2.45;;;;;;;;;;5057322;28;20131;-73
2022/03/17 12:42:00;;;;;;;9.93;2.28;;;;;;;;;;5055767;28;20036;-73
2022/03/17 12:44:26;;;;;;;10.68;2.10;;;;;;;;;;5034289;28;20049;-73
2022/03/17 12:46:53;;;;;;;11.00;2.05;;;;;;;;;;5035727;28;20127;-74
2022/03/17 12:49:20;;;;;;;14.18;2.40;;;;;;;;;;5074671;28;20052;-73
2022/03/17 12:51:46;;;;;;;10.80;1.88;;;;;;;;;;5035027;28;20537;-72
2022/03/17 12:54:13;;;;;;;15.63;2.33;;;;;;;;;;5068709;28;20411;-74
2022/03/17 12:56:50;;;;;;;9.60;1.58;;;;;;;;;;5056502;28;20056;-73
2022/03/17 12:59:16;;;;;;;11.15;1.52;;;;;;;;;;5067123;28;20036;-72
2022/03/17 13:01:42;;;;;;;13.07;1.75;;;;;;;;;;5056271;28;21284;-72
2022/03/17 13:04:08;;;;;;;11.18;1.30;;;;;;;;;;5070560;28;20083;-73
2022/03/17 13:06:54;;;;;;;6.00;1.35;;;;;;;;;;5071330;28;20072;-72
2022/03/17 13:09:20;;;;;;;7.32;1.67;;;;;;;;;;5061672;28;20048;-73
2022/03/17 13:14:38;;;;;;;9.27;1.65;;;;;;;;;;5086147;22;20056;-73
2022/03/17 13:17:05;;;;;;;14.00;2.17;;;;;;;;;;5022312;28;20077;-72
2022/03/17 13:19:42;;;;;;;10.13;2.45;;;;;;;;;;5025480;28;20056;-72
2022/03/17 13:22:09;;;;;;;8.77;1.38;;;;;;;;;;5037092;28;20057;-73
2022/03/17 13:24:35;;;;;;;9.02;1.25;;;;;;;;;;5017296;28;20057;-72
2022/03/17 13:27:01;;;;;;;4.70;1.35;;;;;;;;;;5041693;28;20033;-74
2022/03/17 13:29:28;;;;;;;5.75;1.00;;;;;;;;;;5041563;28;20138;-72
2022/03/17 13:31:54;;;;;;;10.38;1.45;;;;;;;;;;5033886;28;20450;-73
2022/03/17 13:34:39;;;;;;;12.75;1.65;;;;;;;;;;5040438;28;20417;-72
2022/03/17 13:37:12;;;;;;;8.63;1.42;;;;;;;;;;5038620;28;20091;-72
2022/03/17 13:39:39;;;;;;;12.45;1.77;;;;;;;;;;5041099;28;20040;-72
2022/03/17 13:42:10;;;;;;;6.50;1.05;;;;;;;;;;5029859;28;20041;-72
2022/03/17 13:44:46;;;;;;;6.70;1.02;;;;;;;;;;5041409;28;20037;-74
2022/03/17 13:47:15;;;;;;;6.05;0.90;;;;;;;;;;5008265;28;20037;-74
2022/03/17 13:49:41;;;;;;;9.63;1.60;;;;;;;;;;5022470;28;20059;-74
2022/03/17 13:52:10;;;;;;;11.35;2.35;;;;;;;;;;5038866;28;20137;-73
2022/03/17 13:54:43;;;;;;;7.15;1.50;;;;;;;;;;5018632;28;20063;-73
2022/03/17 13:57:09;;;;;;;11.88;1.48;;;;;;;;;;5023080;28;20127;-74
2022/03/17 13:59:35;;;;;;;4.97;1.02;;;;;;;;;;5053396;28;20088;-71
2022/03/17 14:02:11;;;;;;;11.70;1.45;;;;;;;;;;5041272;28;20048;-73
2022/03/17 14:04:37;;;;;;;8.82;1.45;;;;;;;;;;5040445;28;20132;-73
2022/03/17 14:07:04;;;;;;;9.18;1.40;;;;;;;;;;5027387;28;20045;-73
2022/03/17 14:09:30;;;;;;;4.30;1.02;;;;;;;;;;5038108;28;20055;-73
2022/03/17 14:11:56;;;;;;;5.28;1.27;;;;;;;;;;5026150;28;20059;-75
2022/03/17 14:14:22;;;;;;;10.35;1.40;;;;;;;;;;5025671;28;20053;-74
2022/03/17 14:16:49;;;;;;;9.10;1.50;;;;;;;;;;5036127;28;20102;-74
2022/03/17 14:19:16;;;;;;;6.28;1.55;;;;;;;;;;5006656;28;20111;-74
2022/03/17 14:24:29;;;;;;;7.20;1.13;;;;;;;;;;5024448;28;20045;-74
2022/03/17 14:26:55;;;;;;;11.73;1.20;;;;;;;;;;5027233;28;20049;-74
2022/03/17 14:29:21;;;;;;;8.85;1.38;;;;;;;;;;5041511;28;20077;-76
2022/03/17 14:31:50;;;;;;;6.78;1.73;;;;;;;;;;5044530;28;20068;-74
2022/03/17 14:34:19;;;;;;;8.02;1.80;;;;;;;;;;5042982;28;20056;-75
2022/03/17 14:36:46;;;;;;;9.43;1.23;;;;;;;;;;5031649;28;20045;-75
2022/03/17 14:39:13;;;;;;;6.38;1.00;;;;;;;;;;5023230;28;20098;-75
2022/03/17 14:41:39;;;;;;;8.90;1.17;;;;;;;;;;5043140;28;20507;-76
2022/03/17 14:44:06;;;;;;;8.18;1.48;;;;;;;;;;5014018;28;20068;-75
2022/03/17 14:46:32;;;;;;;6.72;1.40;;;;;;;;;;5042668;28;20044;-75
2022/03/17 14:48:59;;;;;;;6.95;1.10;;;;;;;;;;5047440;28;20136;-76
2022/03/17 14:51:28;;;;;;;12.45;1.52;;;;;;;;;;5012514;28;20168;-76